createdAt,value
2023-04-29T00:00:28.651Z,20.78
2023-04-29T00:01:28.732Z,20.72
2023-04-29T00:02:31.191Z,20.84
2023-04-29T00:03:29.354Z,20.82
2023-04-29T00:04:29.247Z,21.09
2023-04-29T00:05:29.199Z,20.95
2023-04-29T00:06:29.306Z,21.07
2023-04-29T00:07:29.252Z,21.35
2023-04-29T00:08:29.328Z,21.18
2023-04-29T00:09:29.448Z,21.50
2023-04-29T00:10:29.505Z,21.57
2023-04-29T00:11:29.563Z,21.75
2023-04-29T00:12:29.660Z,21.44
2023-04-29T00:13:29.740Z,21.52
2023-04-29T00:14:29.831Z,21.59
2023-04-29T00:15:29.918Z,21.93
2023-04-29T00:16:30.068Z,21.68
2023-04-29T00:17:30.102Z,21.81
2023-04-29T00:18:36.119Z,21.70
2023-04-29T00:19:30.200Z,22.13
2023-04-29T00:20:30.312Z,22.00
2023-04-29T00:21:30.349Z,21.97
2023-04-29T00:22:30.445Z,22.32
2023-04-29T00:23:30.522Z,21.93
2023-04-29T00:24:30.608Z,22.30
2023-04-29T00:25:30.717Z,22.30
2023-04-29T00:26:30.775Z,22.51
2023-04-29T00:27:30.835Z,22.58
2023-04-29T00:28:30.926Z,22.39
2023-04-29T00:29:31.023Z,22.68
2023-04-29T00:30:31.132Z,22.68
2023-04-29T00:31:31.256Z,22.68
2023-04-29T00:32:31.356Z,22.75
2023-04-29T00:33:31.379Z,22.80
2023-04-29T00:34:31.454Z,22.66
2023-04-29T00:35:31.582Z,23.08
2023-04-29T00:36:31.616Z,23.00
2023-04-29T00:37:31.711Z,22.78
2023-04-29T00:38:31.772Z,23.08
2023-04-29T00:39:31.852Z,22.90
2023-04-29T00:40:31.948Z,23.10
2023-04-29T00:41:32.035Z,23.03
2023-04-29T00:42:32.129Z,23.26
2023-04-29T00:43:32.228Z,23.41
2023-04-29T00:44:32.342Z,23.39
2023-04-29T00:45:32.411Z,23.62
2023-04-29T00:46:32.551Z,23.67
2023-04-29T00:47:32.671Z,23.36
2023-04-29T00:48:32.628Z,23.39
2023-04-29T00:49:39.244Z,23.49
2023-04-29T00:50:32.805Z,24.06
2023-04-29T00:51:32.964Z,23.83
2023-04-29T00:52:32.977Z,23.33
2023-04-29T00:53:33.076Z,24.02
2023-04-29T00:54:33.134Z,23.97
2023-04-29T00:55:33.221Z,24.09
2023-04-29T00:56:33.320Z,23.94
2023-04-29T00:57:33.368Z,23.86
2023-04-29T00:58:33.467Z,24.21
2023-04-29T00:59:33.569Z,24.20
2023-04-29T01:00:33.587Z,24.21
2023-04-29T01:01:33.817Z,24.09
2023-04-29T01:02:33.920Z,24.42
2023-04-29T01:03:33.982Z,24.23
2023-04-29T01:04:33.945Z,24.08
2023-04-29T01:05:34.036Z,24.48
2023-04-29T01:06:34.105Z,24.37
2023-04-29T01:07:34.207Z,24.51
2023-04-29T01:08:34.264Z,24.12
2023-04-29T01:09:34.314Z,24.24
2023-04-29T01:10:34.401Z,24.57
2023-04-29T01:11:34.505Z,24.35
2023-04-29T01:12:34.592Z,24.16
2023-04-29T01:13:34.648Z,24.54
2023-04-29T01:14:34.762Z,24.50
2023-04-29T01:15:34.807Z,24.75
2023-04-29T01:16:34.952Z,24.16
2023-04-29T01:17:35.032Z,24.80
2023-04-29T01:18:35.067Z,24.33
2023-04-29T01:19:35.152Z,24.68
2023-04-29T01:20:41.206Z,24.78
2023-04-29T01:21:35.321Z,24.90
2023-04-29T01:22:35.364Z,24.67
2023-04-29T01:23:35.519Z,24.59
2023-04-29T01:24:35.538Z,24.77
2023-04-29T01:25:35.612Z,24.69
2023-04-29T01:26:35.724Z,24.87
2023-04-29T01:27:35.787Z,24.55
2023-04-29T01:28:35.877Z,24.97
2023-04-29T01:29:35.951Z,25.12
2023-04-29T01:30:36.035Z,24.65
2023-04-29T01:31:36.152Z,25.23
2023-04-29T01:32:36.219Z,25.23
2023-04-29T01:33:36.291Z,25.26
2023-04-29T01:34:36.400Z,25.27
2023-04-29T01:35:36.435Z,25.45
2023-04-29T01:36:36.533Z,25.50
2023-04-29T01:37:36.613Z,25.35
2023-04-29T01:38:36.718Z,25.06
2023-04-29T01:39:36.802Z,25.44
2023-04-29T01:40:36.860Z,25.55
2023-04-29T01:41:36.918Z,25.55
2023-04-29T01:42:37.012Z,25.67
2023-04-29T01:43:37.112Z,25.70
2023-04-29T01:44:37.177Z,25.36
2023-04-29T01:45:37.303Z,25.35
2023-04-29T01:46:37.388Z,25.91
2023-04-29T01:47:37.487Z,25.45
2023-04-29T01:48:37.530Z,25.32
2023-04-29T01:49:37.648Z,25.84
2023-04-29T01:50:37.709Z,25.53
2023-04-29T01:51:44.238Z,26.05
2023-04-29T01:52:37.853Z,25.72
2023-04-29T01:53:37.925Z,25.66
2023-04-29T01:54:38.015Z,26.08
2023-04-29T01:55:38.109Z,25.55
2023-04-29T01:56:38.214Z,25.69
2023-04-29T01:57:38.303Z,25.80
2023-04-29T01:58:38.404Z,25.92
2023-04-29T01:59:38.514Z,26.29
2023-04-29T02:00:38.627Z,26.07
2023-04-29T02:01:38.631Z,25.91
2023-04-29T02:02:38.772Z,26.26
2023-04-29T02:03:38.979Z,26.51
2023-04-29T02:04:38.880Z,26.28
2023-04-29T02:05:38.952Z,26.36
2023-04-29T02:06:39.065Z,26.03
2023-04-29T02:07:39.127Z,26.02
2023-04-29T02:08:39.229Z,26.18
2023-04-29T02:09:39.325Z,26.15
2023-04-29T02:10:39.432Z,26.12
2023-04-29T02:11:39.458Z,26.33
2023-04-29T02:12:39.527Z,26.16
2023-04-29T02:13:39.617Z,26.54
2023-04-29T02:14:39.679Z,26.43
2023-04-29T02:15:39.772Z,26.34
2023-04-29T02:16:39.888Z,26.58
2023-04-29T02:17:40.041Z,26.38
2023-04-29T02:18:40.021Z,26.29
2023-04-29T02:19:40.103Z,26.59
2023-04-29T02:20:40.215Z,26.74
2023-04-29T02:21:40.263Z,26.81
2023-04-29T02:22:46.848Z,26.71
2023-04-29T02:23:40.429Z,26.78
2023-04-29T02:24:40.486Z,26.71
2023-04-29T02:25:40.587Z,26.64
2023-04-29T02:26:40.668Z,26.28
2023-04-29T02:27:40.757Z,26.38
2023-04-29T02:28:40.852Z,26.92
2023-04-29T02:29:40.942Z,26.53
2023-04-29T02:30:41.027Z,26.80
2023-04-29T02:31:41.179Z,26.78
2023-04-29T02:32:41.235Z,26.80
2023-04-29T02:33:41.283Z,26.76
2023-04-29T02:34:41.374Z,26.53
2023-04-29T02:35:41.452Z,26.64
2023-04-29T02:36:41.583Z,26.76
2023-04-29T02:37:41.662Z,26.58
2023-04-29T02:38:41.722Z,27.07
2023-04-29T02:39:41.815Z,26.34
2023-04-29T02:40:41.894Z,26.98
2023-04-29T02:41:42.008Z,26.78
2023-04-29T02:42:42.038Z,26.98
2023-04-29T02:43:42.134Z,27.00
2023-04-29T02:44:42.216Z,26.68
2023-04-29T02:45:42.330Z,26.95
2023-04-29T02:46:42.388Z,26.98
2023-04-29T02:47:42.508Z,26.92
2023-04-29T02:48:42.536Z,27.28
2023-04-29T02:49:42.607Z,27.16
2023-04-29T02:50:42.687Z,26.97
2023-04-29T02:51:42.768Z,27.02
2023-04-29T02:52:42.864Z,27.42
2023-04-29T02:53:49.454Z,27.24
2023-04-29T02:54:43.076Z,27.28
2023-04-29T02:55:43.142Z,27.19
2023-04-29T02:56:43.223Z,27.10
2023-04-29T02:57:43.315Z,27.51
2023-04-29T02:58:43.364Z,27.48
2023-04-29T02:59:43.442Z,26.95
2023-04-29T03:00:43.542Z,27.02
2023-04-29T03:01:43.770Z,27.33
2023-04-29T03:02:43.792Z,27.55
2023-04-29T03:03:43.912Z,27.44
2023-04-29T03:04:43.848Z,27.14
2023-04-29T03:05:43.897Z,27.44
2023-04-29T03:06:43.991Z,27.09
2023-04-29T03:07:44.116Z,27.21
2023-04-29T03:08:45.142Z,27.30
2023-04-29T03:09:44.332Z,27.26
2023-04-29T03:10:44.333Z,27.69
2023-04-29T03:11:44.416Z,27.60
2023-04-29T03:12:44.521Z,27.55
2023-04-29T03:13:44.672Z,27.16
2023-04-29T03:14:44.663Z,27.30
2023-04-29T03:15:44.758Z,27.67
2023-04-29T03:16:44.848Z,27.80
2023-04-29T03:17:44.994Z,27.44
2023-04-29T03:18:44.983Z,27.86
2023-04-29T03:19:45.088Z,27.66
2023-04-29T03:20:45.142Z,27.73
2023-04-29T03:21:45.251Z,27.58
2023-04-29T03:22:45.286Z,27.86
2023-04-29T03:23:45.385Z,27.42
2023-04-29T03:24:51.938Z,27.89
2023-04-29T03:25:45.578Z,27.84
2023-04-29T03:26:45.631Z,27.35
2023-04-29T03:27:45.710Z,27.55
2023-04-29T03:28:45.815Z,27.64
2023-04-29T03:29:45.872Z,27.64
2023-04-29T03:30:45.982Z,28.10
2023-04-29T03:31:46.101Z,27.49
2023-04-29T03:32:46.158Z,27.93
2023-04-29T03:33:46.231Z,28.04
2023-04-29T03:34:46.308Z,27.80
2023-04-29T03:35:46.395Z,27.57
2023-04-29T03:36:46.473Z,27.51
2023-04-29T03:37:46.554Z,27.73
2023-04-29T03:38:46.633Z,27.89
2023-04-29T03:39:46.734Z,28.10
2023-04-29T03:40:46.789Z,28.06
2023-04-29T03:41:46.874Z,27.40
2023-04-29T03:42:46.946Z,27.64
2023-04-29T03:43:47.028Z,28.06
2023-04-29T03:44:47.125Z,28.21
2023-04-29T03:45:48.217Z,27.62
2023-04-29T03:46:47.306Z,27.87
2023-04-29T03:47:47.418Z,27.57
2023-04-29T03:48:47.472Z,27.82
2023-04-29T03:49:47.577Z,27.80
2023-04-29T03:50:47.646Z,28.06
2023-04-29T03:51:47.741Z,27.67
2023-04-29T03:52:47.826Z,27.91
2023-04-29T03:53:47.893Z,27.44
2023-04-29T03:54:47.999Z,27.71
2023-04-29T03:55:54.525Z,27.58
2023-04-29T03:56:48.142Z,27.39
2023-04-29T03:57:48.232Z,27.97
2023-04-29T03:58:48.319Z,27.62
2023-04-29T03:59:48.400Z,27.53
2023-04-29T04:00:48.488Z,27.80
2023-04-29T04:01:48.612Z,27.40
2023-04-29T04:02:48.889Z,27.55
2023-04-29T04:03:48.864Z,27.55
2023-04-29T04:04:48.862Z,27.53
2023-04-29T04:05:48.859Z,27.67
2023-04-29T04:06:48.948Z,27.55
2023-04-29T04:07:49.044Z,27.87
2023-04-29T04:08:49.122Z,27.64
2023-04-29T04:09:49.258Z,27.62
2023-04-29T04:10:49.273Z,27.75
2023-04-29T04:11:49.332Z,27.73
2023-04-29T04:12:49.402Z,27.64
2023-04-29T04:13:49.501Z,27.28
2023-04-29T04:14:49.582Z,27.39
2023-04-29T04:15:49.728Z,27.78
2023-04-29T04:16:49.758Z,27.17
2023-04-29T04:17:49.884Z,27.12
2023-04-29T04:18:49.913Z,27.14
2023-04-29T04:19:50.307Z,27.40
2023-04-29T04:20:50.080Z,27.05
2023-04-29T04:21:50.127Z,27.30
2023-04-29T04:22:50.209Z,26.97
2023-04-29T04:23:50.265Z,27.33
2023-04-29T04:24:50.359Z,27.35
2023-04-29T04:25:50.455Z,27.02
2023-04-29T04:26:56.716Z,26.86
2023-04-29T04:27:50.631Z,26.97
2023-04-29T04:28:50.701Z,26.90
2023-04-29T04:29:50.997Z,26.74
2023-04-29T04:30:50.886Z,26.97
2023-04-29T04:31:50.988Z,26.73
2023-04-29T04:32:51.141Z,26.80
2023-04-29T04:33:51.101Z,27.02
2023-04-29T04:34:51.210Z,26.78
2023-04-29T04:35:51.286Z,26.98
2023-04-29T04:36:51.383Z,26.71
2023-04-29T04:37:51.484Z,26.68
2023-04-29T04:38:51.547Z,26.46
2023-04-29T04:39:51.817Z,26.80
2023-04-29T04:40:51.700Z,26.71
2023-04-29T04:41:51.771Z,26.64
2023-04-29T04:42:53.080Z,26.86
2023-04-29T04:43:51.928Z,26.68
2023-04-29T04:44:51.982Z,26.73
2023-04-29T04:45:52.108Z,26.73
2023-04-29T04:46:52.257Z,26.66
2023-04-29T04:47:52.257Z,26.53
2023-04-29T04:48:52.312Z,26.68
2023-04-29T04:49:52.572Z,26.69
2023-04-29T04:50:52.468Z,26.46
2023-04-29T04:51:52.573Z,26.54
2023-04-29T04:52:52.691Z,26.44
2023-04-29T04:53:52.728Z,26.34
2023-04-29T04:54:52.820Z,26.44
2023-04-29T04:55:52.941Z,26.46
2023-04-29T04:56:53.009Z,26.36
2023-04-29T04:57:59.742Z,26.13
2023-04-29T04:58:53.222Z,26.31
2023-04-29T04:59:53.513Z,26.10
2023-04-29T05:00:53.343Z,25.99
2023-04-29T05:01:53.455Z,25.91
2023-04-29T05:02:53.607Z,26.02
2023-04-29T05:03:53.732Z,26.00
2023-04-29T05:04:53.653Z,25.86
2023-04-29T05:05:53.709Z,25.97
2023-04-29T05:06:53.798Z,26.03
2023-04-29T05:07:53.957Z,26.00
2023-04-29T05:08:53.972Z,25.97
2023-04-29T05:09:54.353Z,25.95
2023-04-29T05:10:54.553Z,25.99
2023-04-29T05:11:54.253Z,25.91
2023-04-29T05:12:54.343Z,25.94
2023-04-29T05:13:54.387Z,25.95
2023-04-29T05:14:54.480Z,25.95
2023-04-29T05:15:54.558Z,26.00
2023-04-29T05:16:54.680Z,25.81
2023-04-29T05:17:54.765Z,25.99
2023-04-29T05:18:54.806Z,25.81
2023-04-29T05:19:54.941Z,26.03
2023-04-29T05:20:54.962Z,26.02
2023-04-29T05:21:55.035Z,26.12
2023-04-29T05:22:55.084Z,26.07
2023-04-29T05:23:55.183Z,26.13
2023-04-29T05:24:55.240Z,26.03
2023-04-29T05:25:55.337Z,26.20
2023-04-29T05:26:55.429Z,26.08
2023-04-29T05:27:55.536Z,25.99
2023-04-29T05:29:01.767Z,25.88
2023-04-29T05:29:55.705Z,25.80
2023-04-29T05:30:55.814Z,25.95
2023-04-29T05:31:55.887Z,25.83
2023-04-29T05:32:56.044Z,25.78
2023-04-29T05:33:56.102Z,25.53
2023-04-29T05:34:56.150Z,25.45
2023-04-29T05:35:56.234Z,25.29
2023-04-29T05:36:56.328Z,25.45
2023-04-29T05:37:56.431Z,25.35
2023-04-29T05:38:56.508Z,25.29
2023-04-29T05:39:56.556Z,25.26
2023-04-29T05:40:56.660Z,25.05
2023-04-29T05:41:56.735Z,25.14
2023-04-29T05:42:56.837Z,25.00
2023-04-29T05:43:56.921Z,24.83
2023-04-29T05:44:57.019Z,24.96
2023-04-29T05:45:57.239Z,25.00
2023-04-29T05:46:57.221Z,24.83
2023-04-29T05:47:57.426Z,24.80
2023-04-29T05:48:57.354Z,24.84
2023-04-29T05:49:57.438Z,24.91
2023-04-29T05:50:57.490Z,24.91
2023-04-29T05:51:57.585Z,24.96
2023-04-29T05:52:57.696Z,24.93
2023-04-29T05:53:57.772Z,24.90
2023-04-29T05:54:57.909Z,24.90
2023-04-29T05:55:57.945Z,24.69
2023-04-29T05:56:58.037Z,24.77
2023-04-29T05:57:58.117Z,24.78
2023-04-29T05:58:58.201Z,24.81
2023-04-29T06:00:04.324Z,24.65
2023-04-29T06:00:59.892Z,24.69
2023-04-29T06:01:58.470Z,24.65
2023-04-29T06:02:59.470Z,24.69
2023-04-29T06:03:58.758Z,24.72
2023-04-29T06:04:58.972Z,24.75
2023-04-29T06:05:59.020Z,24.75
2023-04-29T06:06:58.872Z,24.64
2023-04-29T06:07:58.909Z,24.67
2023-04-29T06:08:59.002Z,24.72
2023-04-29T06:09:59.917Z,24.64
2023-04-29T06:10:59.165Z,24.72
2023-04-29T06:11:59.222Z,24.58
2023-04-29T06:12:59.322Z,24.55
2023-04-29T06:13:59.412Z,24.47
2023-04-29T06:14:59.515Z,24.33
2023-04-29T06:15:59.611Z,24.15
2023-04-29T06:16:59.662Z,24.19
2023-04-29T06:17:59.854Z,24.01
2023-04-29T06:18:59.845Z,23.93
2023-04-29T06:19:59.902Z,23.76
2023-04-29T06:21:00.014Z,23.76
2023-04-29T06:22:00.136Z,23.82
2023-04-29T06:23:00.141Z,23.89
2023-04-29T06:24:00.216Z,23.66
2023-04-29T06:25:00.315Z,23.74
2023-04-29T06:26:00.406Z,24.01
2023-04-29T06:27:00.479Z,23.98
2023-04-29T06:28:00.555Z,24.06
2023-04-29T06:29:00.658Z,24.19
2023-04-29T06:30:00.733Z,24.10
2023-04-29T06:31:07.333Z,24.05
2023-04-29T06:32:00.923Z,24.05
2023-04-29T06:33:01.069Z,23.93
2023-04-29T06:34:01.065Z,24.24
2023-04-29T06:35:01.136Z,24.44
2023-04-29T06:36:01.223Z,24.23
2023-04-29T06:37:01.302Z,24.47
2023-04-29T06:38:01.354Z,24.38
2023-04-29T06:39:01.449Z,24.28
2023-04-29T06:40:01.563Z,24.19
2023-04-29T06:41:01.639Z,24.15
2023-04-29T06:42:01.699Z,24.05
2023-04-29T06:43:01.807Z,24.01
2023-04-29T06:44:01.891Z,24.21
2023-04-29T06:45:01.975Z,23.79
2023-04-29T06:46:02.052Z,23.98
2023-04-29T06:47:02.165Z,23.79
2023-04-29T06:48:02.250Z,24.31
2023-04-29T06:49:02.295Z,24.47
2023-04-29T06:50:02.402Z,24.67
2023-04-29T06:51:02.481Z,24.64
2023-04-29T06:52:02.545Z,24.72
2023-04-29T06:53:02.635Z,24.61
2023-04-29T06:54:02.735Z,24.67
2023-04-29T06:55:02.829Z,24.96
2023-04-29T06:56:02.913Z,25.03
2023-04-29T06:57:02.958Z,25.36
2023-04-29T06:58:03.075Z,25.26
2023-04-29T06:59:03.127Z,24.94
2023-04-29T07:00:03.219Z,25.11
2023-04-29T07:01:03.365Z,25.21
2023-04-29T07:02:09.358Z,25.03
2023-04-29T07:03:03.537Z,25.17
2023-04-29T07:04:03.645Z,25.24
2023-04-29T07:05:03.624Z,25.33
2023-04-29T07:06:03.708Z,25.26
2023-04-29T07:07:03.792Z,25.30
2023-04-29T07:08:03.856Z,25.05
2023-04-29T07:09:03.924Z,25.24
2023-04-29T07:10:04.023Z,25.27
2023-04-29T07:11:04.129Z,25.26
2023-04-29T07:12:04.208Z,25.49
2023-04-29T07:13:04.305Z,25.18
2023-04-29T07:14:04.387Z,25.39
2023-04-29T07:15:04.440Z,25.27
2023-04-29T07:16:04.533Z,25.24
2023-04-29T07:17:04.712Z,25.26
2023-04-29T07:18:04.748Z,25.20
2023-04-29T07:19:04.810Z,24.90
2023-04-29T07:20:04.928Z,25.21
2023-04-29T07:21:04.980Z,25.21
2023-04-29T07:22:05.066Z,24.97
2023-04-29T07:23:05.179Z,24.93
2023-04-29T07:24:05.246Z,24.99
2023-04-29T07:25:05.344Z,24.94
2023-04-29T07:26:05.385Z,24.85
2023-04-29T07:27:05.445Z,24.87
2023-04-29T07:28:05.541Z,24.77
2023-04-29T07:29:05.595Z,24.72
2023-04-29T07:30:05.697Z,24.71
2023-04-29T07:31:05.884Z,24.71
2023-04-29T07:32:05.841Z,24.68
2023-04-29T07:33:11.901Z,24.64
2023-04-29T07:34:05.980Z,24.61
2023-04-29T07:35:06.087Z,24.44
2023-04-29T07:36:06.163Z,24.35
2023-04-29T07:37:06.248Z,24.50
2023-04-29T07:38:06.349Z,24.45
2023-04-29T07:39:06.435Z,24.27
2023-04-29T07:40:06.519Z,24.28
2023-04-29T07:41:06.558Z,24.57
2023-04-29T07:42:06.643Z,24.33
2023-04-29T07:43:06.725Z,24.28
2023-04-29T07:44:06.825Z,24.57
2023-04-29T07:45:06.857Z,24.57
2023-04-29T07:46:06.980Z,24.67
2023-04-29T07:47:07.027Z,24.64
2023-04-29T07:48:07.151Z,24.81
2023-04-29T07:49:07.183Z,24.81
2023-04-29T07:50:07.267Z,24.72
2023-04-29T07:51:07.379Z,24.69
2023-04-29T07:52:07.445Z,24.83
2023-04-29T07:53:07.545Z,24.90
2023-04-29T07:54:07.629Z,24.78
2023-04-29T07:55:07.726Z,24.83
2023-04-29T07:56:07.822Z,24.94
2023-04-29T07:57:07.899Z,24.45
2023-04-29T07:58:07.977Z,24.34
2023-04-29T07:59:08.073Z,24.24
2023-04-29T08:00:08.145Z,24.40
2023-04-29T08:01:08.240Z,24.23
2023-04-29T08:02:08.340Z,24.55
2023-04-29T08:03:08.520Z,24.77
2023-04-29T08:04:14.936Z,24.59
2023-04-29T08:05:08.978Z,24.75
2023-04-29T08:06:08.793Z,24.81
2023-04-29T08:07:08.784Z,25.20
2023-04-29T08:08:08.798Z,25.21
2023-04-29T08:09:08.892Z,24.90
2023-04-29T08:10:09.010Z,24.91
2023-04-29T08:11:09.062Z,24.72
2023-04-29T08:12:09.168Z,24.91
2023-04-29T08:13:09.231Z,24.85
2023-04-29T08:14:09.306Z,24.68
2023-04-29T08:15:10.020Z,24.64
2023-04-29T08:16:09.616Z,24.52
2023-04-29T08:17:09.557Z,24.50
2023-04-29T08:18:09.694Z,24.99
2023-04-29T08:19:09.743Z,25.03
2023-04-29T08:20:09.834Z,24.96
2023-04-29T08:21:09.884Z,25.14
2023-04-29T08:22:09.996Z,24.81
2023-04-29T08:23:10.062Z,25.06
2023-04-29T08:24:10.114Z,24.94
2023-04-29T08:25:10.212Z,25.00
2023-04-29T08:26:10.291Z,24.93
2023-04-29T08:27:10.396Z,24.94
2023-04-29T08:28:10.509Z,24.65
2023-04-29T08:29:10.558Z,24.77
2023-04-29T08:30:10.810Z,24.90
2023-04-29T08:31:10.934Z,25.00
2023-04-29T08:32:10.829Z,24.90
2023-04-29T08:33:10.911Z,25.09
2023-04-29T08:34:11.008Z,25.02
2023-04-29T08:35:17.077Z,25.03
2023-04-29T08:36:11.150Z,25.33
2023-04-29T08:37:11.262Z,25.41
2023-04-29T08:38:11.319Z,25.36
2023-04-29T08:39:11.413Z,25.39
2023-04-29T08:40:11.531Z,25.11
2023-04-29T08:41:11.586Z,25.15
2023-04-29T08:42:11.680Z,25.23
2023-04-29T08:43:11.821Z,25.45
2023-04-29T08:44:11.862Z,25.08
2023-04-29T08:45:11.952Z,25.08
2023-04-29T08:46:12.238Z,25.18
2023-04-29T08:47:12.093Z,24.88
2023-04-29T08:48:12.261Z,24.64
2023-04-29T08:49:12.320Z,24.90
2023-04-29T08:50:12.349Z,25.12
2023-04-29T08:51:12.441Z,24.88
2023-04-29T08:52:12.562Z,24.81
2023-04-29T08:53:12.609Z,24.47
2023-04-29T08:54:12.713Z,24.52
2023-04-29T08:55:12.801Z,24.51
2023-04-29T08:56:12.885Z,24.45
2023-04-29T08:57:12.979Z,24.48
2023-04-29T08:58:13.059Z,24.37
2023-04-29T08:59:13.114Z,24.31
2023-04-29T09:00:13.221Z,24.40
2023-04-29T09:01:13.522Z,24.47
2023-04-29T09:02:13.360Z,24.78
2023-04-29T09:03:13.487Z,24.83
2023-04-29T09:04:13.507Z,25.02
2023-04-29T09:05:13.599Z,24.97
2023-04-29T09:06:19.695Z,24.59
2023-04-29T09:07:13.722Z,24.50
2023-04-29T09:08:13.818Z,24.69
2023-04-29T09:09:13.904Z,24.45
2023-04-29T09:10:14.020Z,24.94
2023-04-29T09:11:14.081Z,24.94
2023-04-29T09:12:14.172Z,25.14
2023-04-29T09:13:14.264Z,25.44
2023-04-29T09:14:14.345Z,25.52
2023-04-29T09:15:14.444Z,25.30
2023-04-29T09:16:14.655Z,25.14
2023-04-29T09:17:14.586Z,25.39
2023-04-29T09:18:14.674Z,25.27
2023-04-29T09:19:14.770Z,25.36
2023-04-29T09:20:14.859Z,25.17
2023-04-29T09:21:14.949Z,25.35
2023-04-29T09:22:15.040Z,25.03
2023-04-29T09:23:15.128Z,24.78
2023-04-29T09:24:15.224Z,24.64
2023-04-29T09:25:15.343Z,24.68
2023-04-29T09:26:15.427Z,24.77
2023-04-29T09:27:15.477Z,24.62
2023-04-29T09:28:15.582Z,24.41
2023-04-29T09:29:15.673Z,24.59
2023-04-29T09:30:15.761Z,24.55
2023-04-29T09:31:15.914Z,24.71
2023-04-29T09:32:15.921Z,25.02
2023-04-29T09:33:16.014Z,24.77
2023-04-29T09:34:16.165Z,25.18
2023-04-29T09:35:16.188Z,24.87
2023-04-29T09:36:16.282Z,25.05
2023-04-29T09:37:22.467Z,25.15
2023-04-29T09:38:16.475Z,24.85
2023-04-29T09:39:16.524Z,25.17
2023-04-29T09:40:16.597Z,25.50
2023-04-29T09:41:16.681Z,25.50
2023-04-29T09:42:16.776Z,25.61
2023-04-29T09:43:16.863Z,25.64
2023-04-29T09:44:16.957Z,25.15
2023-04-29T09:45:17.053Z,25.47
2023-04-29T09:46:17.204Z,25.53
2023-04-29T09:47:17.239Z,25.27
2023-04-29T09:48:17.311Z,25.39
2023-04-29T09:49:18.364Z,25.44
2023-04-29T09:50:17.540Z,25.66
2023-04-29T09:51:17.565Z,25.69
2023-04-29T09:52:17.653Z,25.72
2023-04-29T09:53:17.749Z,25.83
2023-04-29T09:54:17.864Z,25.76
2023-04-29T09:55:17.930Z,25.80
2023-04-29T09:56:18.010Z,25.52
2023-04-29T09:57:18.096Z,25.91
2023-04-29T09:58:18.175Z,25.69
2023-04-29T09:59:18.283Z,25.94
2023-04-29T10:00:18.361Z,25.78
2023-04-29T10:01:18.482Z,25.72
2023-04-29T10:02:18.769Z,26.02
2023-04-29T10:03:18.687Z,25.86
2023-04-29T10:04:18.756Z,26.15
2023-04-29T10:05:18.813Z,25.94
2023-04-29T10:06:18.881Z,26.16
2023-04-29T10:07:18.954Z,26.39
2023-04-29T10:08:25.519Z,26.29
2023-04-29T10:09:19.122Z,26.31
2023-04-29T10:10:19.216Z,26.33
2023-04-29T10:11:19.269Z,26.16
2023-04-29T10:12:19.380Z,26.46
2023-04-29T10:13:19.454Z,26.38
2023-04-29T10:14:19.551Z,26.18
2023-04-29T10:15:19.637Z,26.26
2023-04-29T10:16:19.777Z,26.31
2023-04-29T10:17:19.813Z,26.54
2023-04-29T10:18:19.931Z,26.48
2023-04-29T10:19:20.497Z,26.33
2023-04-29T10:20:20.059Z,26.51
2023-04-29T10:21:20.148Z,26.81
2023-04-29T10:22:20.226Z,26.93
2023-04-29T10:23:20.319Z,27.12
2023-04-29T10:24:20.413Z,27.09
2023-04-29T10:25:20.511Z,27.37
2023-04-29T10:26:20.594Z,27.32
2023-04-29T10:27:20.703Z,27.55
2023-04-29T10:28:20.797Z,27.39
2023-04-29T10:29:20.882Z,27.51
2023-04-29T10:30:20.943Z,27.67
2023-04-29T10:31:21.012Z,27.30
2023-04-29T10:32:21.089Z,27.10
2023-04-29T10:33:21.195Z,27.28
2023-04-29T10:34:21.299Z,27.37
2023-04-29T10:35:21.342Z,27.35
2023-04-29T10:36:21.448Z,27.12
2023-04-29T10:37:21.528Z,27.16
2023-04-29T10:38:21.629Z,27.48
2023-04-29T10:39:28.600Z,27.53
2023-04-29T10:40:22.433Z,27.33
2023-04-29T10:41:21.851Z,27.42
2023-04-29T10:42:21.929Z,26.95
2023-04-29T10:43:22.017Z,27.03
2023-04-29T10:44:22.105Z,27.14
2023-04-29T10:45:22.191Z,26.95
2023-04-29T10:46:22.306Z,26.98
2023-04-29T10:47:22.406Z,27.14
2023-04-29T10:48:22.463Z,27.39
2023-04-29T10:49:24.804Z,27.10
2023-04-29T10:50:22.587Z,27.23
2023-04-29T10:51:22.671Z,27.21
2023-04-29T10:52:22.729Z,27.26
2023-04-29T10:53:22.830Z,27.26
2023-04-29T10:54:22.923Z,27.46
2023-04-29T10:55:23.036Z,27.02
2023-04-29T10:56:23.091Z,27.12
2023-04-29T10:57:23.203Z,27.33
2023-04-29T10:58:23.282Z,27.09
2023-04-29T10:59:23.373Z,26.97
2023-04-29T11:00:23.486Z,26.95
2023-04-29T11:01:23.624Z,26.86
2023-04-29T11:02:23.683Z,27.05
2023-04-29T11:03:23.770Z,27.40
2023-04-29T11:04:23.794Z,27.73
2023-04-29T11:05:23.833Z,27.64
2023-04-29T11:06:23.892Z,27.53
2023-04-29T11:07:23.946Z,27.60
2023-04-29T11:08:24.159Z,27.37
2023-04-29T11:09:24.132Z,27.58
2023-04-29T11:10:30.312Z,28.02
2023-04-29T11:11:25.598Z,28.08
2023-04-29T11:12:24.374Z,27.97
2023-04-29T11:13:24.484Z,27.95
2023-04-29T11:14:24.541Z,28.10
2023-04-29T11:15:24.620Z,28.50
2023-04-29T11:16:24.742Z,28.67
2023-04-29T11:17:26.018Z,28.53
2023-04-29T11:18:24.825Z,28.67
2023-04-29T11:19:24.917Z,29.02
2023-04-29T11:20:25.009Z,28.98
2023-04-29T11:21:25.127Z,28.83
2023-04-29T11:22:25.213Z,28.94
2023-04-29T11:23:27.257Z,29.20
2023-04-29T11:24:25.349Z,29.18
2023-04-29T11:25:25.413Z,29.16
2023-04-29T11:26:25.517Z,29.22
2023-04-29T11:27:25.631Z,28.86
2023-04-29T11:28:25.654Z,28.36
2023-04-29T11:29:25.719Z,28.06
2023-04-29T11:30:25.781Z,28.57
2023-04-29T11:31:28.237Z,28.44
2023-04-29T11:32:26.104Z,28.65
2023-04-29T11:33:26.090Z,28.77
2023-04-29T11:34:26.119Z,28.86
2023-04-29T11:35:26.196Z,29.02
2023-04-29T11:36:26.296Z,28.81
2023-04-29T11:37:26.350Z,29.04
2023-04-29T11:38:26.448Z,28.96
2023-04-29T11:39:26.549Z,29.00
2023-04-29T11:40:26.629Z,29.43
2023-04-29T11:41:33.296Z,29.49
2023-04-29T11:42:26.793Z,29.43
2023-04-29T11:43:26.896Z,29.80
2023-04-29T11:44:26.982Z,29.57
2023-04-29T11:45:27.089Z,29.53
2023-04-29T11:46:27.188Z,29.59
2023-04-29T11:47:27.276Z,29.61
2023-04-29T11:48:27.335Z,29.66
2023-04-29T11:49:27.414Z,29.84
2023-04-29T11:50:27.510Z,29.66
2023-04-29T11:51:27.604Z,29.74
2023-04-29T11:52:27.695Z,29.28
2023-04-29T11:53:27.907Z,29.41
2023-04-29T11:54:27.901Z,29.78
2023-04-29T11:55:27.931Z,29.51
2023-04-29T11:56:28.024Z,29.20
2023-04-29T11:57:28.112Z,29.35
2023-04-29T11:58:28.207Z,29.35
2023-04-29T11:59:28.289Z,29.20
2023-04-29T12:00:28.385Z,29.35
2023-04-29T12:01:28.467Z,29.53
2023-04-29T12:02:28.685Z,29.63
2023-04-29T12:03:28.848Z,29.55
2023-04-29T12:04:28.905Z,29.41
2023-04-29T12:05:28.823Z,29.49
2023-04-29T12:06:28.881Z,29.59
2023-04-29T12:07:28.968Z,29.82
2023-04-29T12:08:29.064Z,29.59
2023-04-29T12:09:29.129Z,29.53
2023-04-29T12:10:29.203Z,29.33
2023-04-29T12:11:29.282Z,29.49
2023-04-29T12:12:35.838Z,29.89
2023-04-29T12:13:29.443Z,30.12
2023-04-29T12:14:29.540Z,29.97
2023-04-29T12:15:29.658Z,29.84
2023-04-29T12:16:29.817Z,29.95
2023-04-29T12:17:29.820Z,30.14
2023-04-29T12:18:29.902Z,29.97
2023-04-29T12:19:29.960Z,29.72
2023-04-29T12:20:30.053Z,29.68
2023-04-29T12:21:30.181Z,29.82
2023-04-29T12:22:30.237Z,29.91
2023-04-29T12:23:30.341Z,30.08
2023-04-29T12:24:30.409Z,29.74
2023-04-29T12:25:30.466Z,29.45
2023-04-29T12:26:30.571Z,29.53
2023-04-29T12:27:30.666Z,28.96
2023-04-29T12:28:30.740Z,29.10
2023-04-29T12:29:30.796Z,28.88
2023-04-29T12:30:30.897Z,28.81
2023-04-29T12:31:30.984Z,28.81
2023-04-29T12:32:31.047Z,28.44
2023-04-29T12:33:31.245Z,28.38
2023-04-29T12:34:31.213Z,28.38
2023-04-29T12:35:31.301Z,27.84
2023-04-29T12:36:31.412Z,27.84
2023-04-29T12:37:31.495Z,27.40
2023-04-29T12:38:31.593Z,27.05
2023-04-29T12:39:31.665Z,27.64
2023-04-29T12:40:31.716Z,27.26
2023-04-29T12:41:31.811Z,27.33
2023-04-29T12:42:32.522Z,27.37
2023-04-29T12:43:37.940Z,27.71
2023-04-29T12:44:32.056Z,27.66
2023-04-29T12:45:32.120Z,27.93
2023-04-29T12:46:32.183Z,27.91
2023-04-29T12:47:32.228Z,28.13
2023-04-29T12:48:33.409Z,28.42
2023-04-29T12:49:32.357Z,28.28
2023-04-29T12:50:32.414Z,27.67
2023-04-29T12:51:32.504Z,27.87
2023-04-29T12:52:33.310Z,28.73
2023-04-29T12:53:32.716Z,29.45